sensor_id;sensor_type;location;lat;lon;timestamp;pressure;altitude;pressure_sealevel;temperature;humidity
75136;BME280;63707;52.212;9.540;2022-12-18T00:01:15;101429.19;;;-5.29;79.71
75136;BME280;63707;52.212;9.540;2022-12-18T00:03:41;101435.78;;;-5.00;79.13
75136;BME280;63707;52.212;9.540;2022-12-18T00:06:07;101421.06;;;-5.07;78.67
75136;BME280;63707;52.212;9.540;2022-12-18T00:08:34;101420.13;;;-5.25;79.86
75136;BME280;63707;52.212;9.540;2022-12-18T00:11:04;101426.13;;;-5.20;79.33
75136;BME280;63707;52.212;9.540;2022-12-18T00:13:30;101431.94;;;-5.12;79.07
75136;BME280;63707;52.212;9.540;2022-12-18T00:16:01;101432.16;;;-5.16;78.68
75136;BME280;63707;52.212;9.540;2022-12-18T00:18:27;101441.47;;;-5.45;79.39
75136;BME280;63707;52.212;9.540;2022-12-18T00:20:52;101441.66;;;-5.31;79.82
75136;BME280;63707;52.212;9.540;2022-12-18T00:23:17;101437.94;;;-5.27;79.29
75136;BME280;63707;52.212;9.540;2022-12-18T00:25:43;101452.94;;;-5.26;78.83
75136;BME280;63707;52.212;9.540;2022-12-18T00:28:10;101445.41;;;-5.35;79.06
75136;BME280;63707;52.212;9.540;2022-12-18T00:30:35;101445.97;;;-5.28;79.67
75136;BME280;63707;52.212;9.540;2022-12-18T00:33:01;101448.28;;;-5.40;79.06
75136;BME280;63707;52.212;9.540;2022-12-18T00:35:26;101450.34;;;-5.46;79.20
75136;BME280;63707;52.212;9.540;2022-12-18T00:37:51;101453.28;;;-5.52;80.04
75136;BME280;63707;52.212;9.540;2022-12-18T00:40:17;101456.47;;;-5.44;79.74
75136;BME280;63707;52.212;9.540;2022-12-18T00:42:42;101457.97;;;-5.39;79.83
75136;BME280;63707;52.212;9.540;2022-12-18T00:45:26;101454.53;;;-5.41;79.26
75136;BME280;63707;52.212;9.540;2022-12-18T00:47:52;101454.03;;;-5.30;78.97
75136;BME280;63707;52.212;9.540;2022-12-18T00:50:18;101452.16;;;-5.28;78.89
75136;BME280;63707;52.212;9.540;2022-12-18T00:52:43;101449.09;;;-5.19;78.45
75136;BME280;63707;52.212;9.540;2022-12-18T00:55:09;101453.44;;;-5.36;78.99
75136;BME280;63707;52.212;9.540;2022-12-18T00:57:35;101451.78;;;-5.39;79.52
75136;BME280;63707;52.212;9.540;2022-12-18T01:00:00;101448.56;;;-5.27;78.59
75136;BME280;63707;52.212;9.540;2022-12-18T01:02:27;101459.69;;;-5.38;79.25
75136;BME280;63707;52.212;9.540;2022-12-18T01:04:53;101450.06;;;-5.21;78.48
75136;BME280;63707;52.212;9.540;2022-12-18T01:07:18;101458.63;;;-5.33;78.79
75136;BME280;63707;52.212;9.540;2022-12-18T01:09:44;101458.97;;;-5.41;79.10
75136;BME280;63707;52.212;9.540;2022-12-18T01:12:09;101462.84;;;-5.48;79.45
75136;BME280;63707;52.212;9.540;2022-12-18T01:14:36;101465.50;;;-5.68;80.08
75136;BME280;63707;52.212;9.540;2022-12-18T01:17:03;101459.03;;;-5.43;79.41
75136;BME280;63707;52.212;9.540;2022-12-18T01:19:30;101469.94;;;-5.49;79.63
75136;BME280;63707;52.212;9.540;2022-12-18T01:21:56;101471.94;;;-5.54;80.06
75136;BME280;63707;52.212;9.540;2022-12-18T01:24:21;101465.19;;;-5.61;79.83
75136;BME280;63707;52.212;9.540;2022-12-18T01:26:47;101466.66;;;-5.74;80.14
75136;BME280;63707;52.212;9.540;2022-12-18T01:29:12;101465.28;;;-5.83;80.31
75136;BME280;63707;52.212;9.540;2022-12-18T01:31:38;101461.59;;;-5.99;80.74
75136;BME280;63707;52.212;9.540;2022-12-18T01:34:04;101464.00;;;-5.74;80.56
75136;BME280;63707;52.212;9.540;2022-12-18T01:36:33;101461.25;;;-5.52;79.87
75136;BME280;63707;52.212;9.540;2022-12-18T01:38:59;101460.41;;;-5.53;79.80
75136;BME280;63707;52.212;9.540;2022-12-18T01:41:28;101455.22;;;-5.56;79.67
75136;BME280;63707;52.212;9.540;2022-12-18T01:44:53;101456.22;;;-5.58;79.39
75136;BME280;63707;52.212;9.540;2022-12-18T01:47:24;101453.44;;;-5.55;79.79
75136;BME280;63707;52.212;9.540;2022-12-18T01:49:51;101454.28;;;-5.55;79.43
75136;BME280;63707;52.212;9.540;2022-12-18T01:52:19;101469.84;;;-5.66;79.88
75136;BME280;63707;52.212;9.540;2022-12-18T01:54:46;101469.56;;;-5.60;79.36
75136;BME280;63707;52.212;9.540;2022-12-18T01:57:13;101472.69;;;-5.71;79.95
75136;BME280;63707;52.212;9.540;2022-12-18T01:59:39;101476.63;;;-5.59;79.80
75136;BME280;63707;52.212;9.540;2022-12-18T02:02:06;101485.78;;;-5.66;79.66
75136;BME280;63707;52.212;9.540;2022-12-18T02:04:32;101472.69;;;-5.71;79.74
75136;BME280;63707;52.212;9.540;2022-12-18T02:07:03;101483.13;;;-5.86;80.17
75136;BME280;63707;52.212;9.540;2022-12-18T02:09:37;101477.66;;;-6.02;80.98
75136;BME280;63707;52.212;9.540;2022-12-18T02:12:11;101481.91;;;-5.79;80.15
75136;BME280;63707;52.212;9.540;2022-12-18T02:14:41;101481.84;;;-5.78;80.40
75136;BME280;63707;52.212;9.540;2022-12-18T02:17:13;101493.19;;;-5.93;80.85
75136;BME280;63707;52.212;9.540;2022-12-18T02:19:55;101477.63;;;-5.82;80.54
75136;BME280;63707;52.212;9.540;2022-12-18T02:22:30;101476.53;;;-5.96;81.30
75136;BME280;63707;52.212;9.540;2022-12-18T02:25:12;101475.72;;;-5.98;81.20
75136;BME280;63707;52.212;9.540;2022-12-18T02:27:44;101480.09;;;-5.97;81.23
75136;BME280;63707;52.212;9.540;2022-12-18T02:30:11;101476.81;;;-6.24;82.00
75136;BME280;63707;52.212;9.540;2022-12-18T02:32:39;101469.50;;;-5.97;81.35
75136;BME280;63707;52.212;9.540;2022-12-18T02:35:10;101466.06;;;-5.81;80.94
75136;BME280;63707;52.212;9.540;2022-12-18T02:37:39;101465.38;;;-6.05;81.51
75136;BME280;63707;52.212;9.540;2022-12-18T02:40:06;101465.34;;;-5.84;80.81
75136;BME280;63707;52.212;9.540;2022-12-18T02:42:33;101465.66;;;-5.72;80.73
75136;BME280;63707;52.212;9.540;2022-12-18T02:44:59;101453.25;;;-5.71;80.09
75136;BME280;63707;52.212;9.540;2022-12-18T02:47:29;101454.72;;;-6.03;81.36
75136;BME280;63707;52.212;9.540;2022-12-18T02:50:02;101459.81;;;-5.98;81.24
75136;BME280;63707;52.212;9.540;2022-12-18T02:52:35;101447.94;;;-5.90;81.35
75136;BME280;63707;52.212;9.540;2022-12-18T02:55:14;101456.16;;;-5.77;80.79
75136;BME280;63707;52.212;9.540;2022-12-18T02:57:46;101464.91;;;-5.94;80.96
75136;BME280;63707;52.212;9.540;2022-12-18T03:00:17;101463.44;;;-6.63;82.09
75136;BME280;63707;52.212;9.540;2022-12-18T03:02:48;101461.81;;;-6.46;82.19
75136;BME280;63707;52.212;9.540;2022-12-18T03:05:20;101461.09;;;-6.93;83.06
75136;BME280;63707;52.212;9.540;2022-12-18T03:07:51;101460.59;;;-7.03;83.50
75136;BME280;63707;52.212;9.540;2022-12-18T03:10:23;101467.25;;;-6.92;84.20
75136;BME280;63707;52.212;9.540;2022-12-18T03:12:53;101465.84;;;-7.24;84.63
75136;BME280;63707;52.212;9.540;2022-12-18T03:15:24;101458.66;;;-7.21;84.73
75136;BME280;63707;52.212;9.540;2022-12-18T03:17:57;101463.59;;;-7.58;85.54
75136;BME280;63707;52.212;9.540;2022-12-18T03:20:25;101448.13;;;-7.69;85.99
75136;BME280;63707;52.212;9.540;2022-12-18T03:22:55;101457.97;;;-7.73;85.88
75136;BME280;63707;52.212;9.540;2022-12-18T03:25:25;101451.44;;;-7.87;86.99
75136;BME280;63707;52.212;9.540;2022-12-18T03:27:54;101447.94;;;-7.88;87.45
75136;BME280;63707;52.212;9.540;2022-12-18T03:30:23;101457.50;;;-7.84;87.57
75136;BME280;63707;52.212;9.540;2022-12-18T03:32:53;101463.94;;;-7.91;87.59
75136;BME280;63707;52.212;9.540;2022-12-18T03:35:29;101473.06;;;-8.00;87.71
75136;BME280;63707;52.212;9.540;2022-12-18T03:37:57;101473.16;;;-8.03;87.70
75136;BME280;63707;52.212;9.540;2022-12-18T03:40:26;101478.81;;;-8.13;87.68
75136;BME280;63707;52.212;9.540;2022-12-18T03:42:59;101471.59;;;-8.33;88.30
75136;BME280;63707;52.212;9.540;2022-12-18T03:45:34;101455.38;;;-8.24;88.78
75136;BME280;63707;52.212;9.540;2022-12-18T03:48:01;101464.28;;;-8.27;88.20
75136;BME280;63707;52.212;9.540;2022-12-18T03:50:36;101457.81;;;-8.18;87.10
75136;BME280;63707;52.212;9.540;2022-12-18T03:53:14;101461.59;;;-8.25;88.15
75136;BME280;63707;52.212;9.540;2022-12-18T03:55:43;101462.41;;;-8.48;88.49
75136;BME280;63707;52.212;9.540;2022-12-18T03:58:12;101463.72;;;-8.61;88.75
75136;BME280;63707;52.212;9.540;2022-12-18T04:00:41;101464.81;;;-8.68;89.29
75136;BME280;63707;52.212;9.540;2022-12-18T04:03:08;101466.00;;;-8.77;89.46
75136;BME280;63707;52.212;9.540;2022-12-18T04:05:36;101468.59;;;-8.75;89.76
75136;BME280;63707;52.212;9.540;2022-12-18T04:08:02;101466.38;;;-8.89;89.96
75136;BME280;63707;52.212;9.540;2022-12-18T04:10:29;101456.50;;;-8.82;90.03
75136;BME280;63707;52.212;9.540;2022-12-18T04:12:55;101452.56;;;-8.97;90.10
75136;BME280;63707;52.212;9.540;2022-12-18T04:15:21;101464.94;;;-8.99;89.95
75136;BME280;63707;52.212;9.540;2022-12-18T04:17:49;101461.03;;;-9.15;89.95
75136;BME280;63707;52.212;9.540;2022-12-18T04:20:14;101466.84;;;-9.32;90.50
75136;BME280;63707;52.212;9.540;2022-12-18T04:22:40;101465.03;;;-9.30;90.63
75136;BME280;63707;52.212;9.540;2022-12-18T04:25:06;101470.66;;;-9.42;91.02
75136;BME280;63707;52.212;9.540;2022-12-18T04:27:32;101461.56;;;-9.32;91.21
75136;BME280;63707;52.212;9.540;2022-12-18T04:29:57;101466.75;;;-9.29;91.28
75136;BME280;63707;52.212;9.540;2022-12-18T04:32:22;101471.47;;;-9.11;91.05
75136;BME280;63707;52.212;9.540;2022-12-18T04:34:49;101469.34;;;-9.00;90.60
75136;BME280;63707;52.212;9.540;2022-12-18T04:37:15;101475.00;;;-9.12;90.87
75136;BME280;63707;52.212;9.540;2022-12-18T04:39:40;101470.25;;;-9.29;91.05
75136;BME280;63707;52.212;9.540;2022-12-18T04:42:06;101478.31;;;-9.33;91.50
75136;BME280;63707;52.212;9.540;2022-12-18T04:44:31;101482.09;;;-9.42;91.73
75136;BME280;63707;52.212;9.540;2022-12-18T04:46:57;101472.56;;;-9.18;91.54
75136;BME280;63707;52.212;9.540;2022-12-18T04:49:22;101475.53;;;-9.29;91.69
75136;BME280;63707;52.212;9.540;2022-12-18T04:51:49;101466.56;;;-7.43;91.01
75136;BME280;63707;52.212;9.540;2022-12-18T04:54:15;101452.69;;;-6.39;86.99
75136;BME280;63707;52.212;9.540;2022-12-18T04:56:40;101448.28;;;-5.97;85.13
75136;BME280;63707;52.212;9.540;2022-12-18T04:59:06;101441.97;;;-5.95;84.14
75136;BME280;63707;52.212;9.540;2022-12-18T05:01:31;101451.28;;;-5.66;83.15
75136;BME280;63707;52.212;9.540;2022-12-18T05:03:57;101444.41;;;-5.72;82.81
75136;BME280;63707;52.212;9.540;2022-12-18T05:06:22;101445.22;;;-5.70;82.70
75136;BME280;63707;52.212;9.540;2022-12-18T05:08:49;101439.38;;;-5.39;81.56
75136;BME280;63707;52.212;9.540;2022-12-18T05:11:15;101448.63;;;-5.47;81.20
75136;BME280;63707;52.212;9.540;2022-12-18T05:13:42;101456.88;;;-5.34;80.82
75136;BME280;63707;52.212;9.540;2022-12-18T05:16:07;101464.41;;;-6.66;81.05
75136;BME280;63707;52.212;9.540;2022-12-18T05:18:33;101476.66;;;-8.02;85.53
75136;BME280;63707;52.212;9.540;2022-12-18T05:20:59;101488.41;;;-8.11;86.97
75136;BME280;63707;52.212;9.540;2022-12-18T05:23:25;101488.69;;;-8.18;87.68
75136;BME280;63707;52.212;9.540;2022-12-18T05:25:53;101479.97;;;-8.22;87.92
75136;BME280;63707;52.212;9.540;2022-12-18T05:28:19;101468.59;;;-7.74;88.90
75136;BME280;63707;52.212;9.540;2022-12-18T05:30:47;101470.09;;;-6.97;86.70
75136;BME280;63707;52.212;9.540;2022-12-18T05:33:13;101465.31;;;-6.03;84.43
75136;BME280;63707;52.212;9.540;2022-12-18T05:35:39;101473.09;;;-5.98;83.55
75136;BME280;63707;52.212;9.540;2022-12-18T05:38:04;101476.47;;;-5.76;82.75
75136;BME280;63707;52.212;9.540;2022-12-18T05:40:30;101484.84;;;-5.65;82.41
75136;BME280;63707;52.212;9.540;2022-12-18T05:42:57;101479.13;;;-5.56;82.01
75136;BME280;63707;52.212;9.540;2022-12-18T05:45:22;101472.94;;;-5.56;81.90
75136;BME280;63707;52.212;9.540;2022-12-18T05:47:48;101474.16;;;-5.63;82.29
75136;BME280;63707;52.212;9.540;2022-12-18T05:50:13;101474.09;;;-5.62;81.93
75136;BME280;63707;52.212;9.540;2022-12-18T05:52:39;101474.47;;;-5.51;81.89
75136;BME280;63707;52.212;9.540;2022-12-18T05:55:05;101478.19;;;-5.55;81.77
75136;BME280;63707;52.212;9.540;2022-12-18T05:57:30;101467.44;;;-5.33;82.20
75136;BME280;63707;52.212;9.540;2022-12-18T05:59:57;101474.06;;;-5.23;81.15
75136;BME280;63707;52.212;9.540;2022-12-18T06:02:22;101483.97;;;-5.26;80.83
75136;BME280;63707;52.212;9.540;2022-12-18T06:04:48;101495.44;;;-5.26;81.20
75136;BME280;63707;52.212;9.540;2022-12-18T06:07:13;101484.56;;;-5.20;81.18
75136;BME280;63707;52.212;9.540;2022-12-18T06:09:39;101482.47;;;-5.13;80.63
75136;BME280;63707;52.212;9.540;2022-12-18T06:12:05;101488.44;;;-5.08;80.49
75136;BME280;63707;52.212;9.540;2022-12-18T06:14:31;101486.94;;;-5.14;80.05
75136;BME280;63707;52.212;9.540;2022-12-18T06:16:57;101486.72;;;-5.09;80.22
75136;BME280;63707;52.212;9.540;2022-12-18T06:19:23;101492.47;;;-5.18;80.33
75136;BME280;63707;52.212;9.540;2022-12-18T06:21:49;101484.56;;;-5.01;79.61
75136;BME280;63707;52.212;9.540;2022-12-18T06:24:15;101479.56;;;-5.27;81.03
75136;BME280;63707;52.212;9.540;2022-12-18T06:26:41;101489.56;;;-5.32;81.21
75136;BME280;63707;52.212;9.540;2022-12-18T06:29:06;101489.53;;;-5.90;81.97
75136;BME280;63707;52.212;9.540;2022-12-18T06:31:32;101490.59;;;-6.37;82.21
75136;BME280;63707;52.212;9.540;2022-12-18T06:34:02;101493.34;;;-6.82;83.87
75136;BME280;63707;52.212;9.540;2022-12-18T06:36:27;101498.25;;;-6.94;84.91
75136;BME280;63707;52.212;9.540;2022-12-18T06:38:53;101495.16;;;-7.06;85.67
75136;BME280;63707;52.212;9.540;2022-12-18T06:41:20;101505.81;;;-7.07;86.12
75136;BME280;63707;52.212;9.540;2022-12-18T06:43:46;101497.88;;;-7.07;85.13
75136;BME280;63707;52.212;9.540;2022-12-18T06:46:12;101507.53;;;-7.30;86.13
75136;BME280;63707;52.212;9.540;2022-12-18T06:48:38;101499.72;;;-7.57;86.78
75136;BME280;63707;52.212;9.540;2022-12-18T06:51:05;101514.97;;;-7.64;87.14
75136;BME280;63707;52.212;9.540;2022-12-18T06:53:32;101518.88;;;-7.74;87.51
75136;BME280;63707;52.212;9.540;2022-12-18T06:56:00;101521.88;;;-7.60;87.05
75136;BME280;63707;52.212;9.540;2022-12-18T06:58:25;101516.81;;;-7.91;87.37
75136;BME280;63707;52.212;9.540;2022-12-18T07:00:51;101520.78;;;-8.04;87.58
75136;BME280;63707;52.212;9.540;2022-12-18T07:03:17;101517.75;;;-7.92;88.34
75136;BME280;63707;52.212;9.540;2022-12-18T07:05:42;101515.44;;;-8.28;88.71
75136;BME280;63707;52.212;9.540;2022-12-18T07:08:09;101521.22;;;-8.41;89.05
75136;BME280;63707;52.212;9.540;2022-12-18T07:10:40;101514.28;;;-8.45;89.40
75136;BME280;63707;52.212;9.540;2022-12-18T07:13:06;101526.34;;;-8.65;89.53
75136;BME280;63707;52.212;9.540;2022-12-18T07:15:31;101536.34;;;-8.74;89.85
75136;BME280;63707;52.212;9.540;2022-12-18T07:17:57;101540.88;;;-8.78;90.27
75136;BME280;63707;52.212;9.540;2022-12-18T07:20:22;101541.78;;;-8.79;90.63
75136;BME280;63707;52.212;9.540;2022-12-18T07:22:48;101550.91;;;-8.89;90.85
75136;BME280;63707;52.212;9.540;2022-12-18T07:25:15;101557.00;;;-8.87;91.06
75136;BME280;63707;52.212;9.540;2022-12-18T07:27:41;101557.75;;;-8.83;91.33
75136;BME280;63707;52.212;9.540;2022-12-18T07:30:07;101563.72;;;-8.22;89.90
75136;BME280;63707;52.212;9.540;2022-12-18T07:32:33;101561.16;;;-8.52;89.15
75136;BME280;63707;52.212;9.540;2022-12-18T07:34:59;101563.66;;;-8.46;89.57
75136;BME280;63707;52.212;9.540;2022-12-18T07:37:25;101568.22;;;-8.52;88.95
75136;BME280;63707;52.212;9.540;2022-12-18T07:39:50;101559.38;;;-8.51;88.97
75136;BME280;63707;52.212;9.540;2022-12-18T07:42:17;101562.22;;;-7.78;86.96
75136;BME280;63707;52.212;9.540;2022-12-18T07:44:58;101551.75;;;-7.81;85.69
75136;BME280;63707;52.212;9.540;2022-12-18T07:47:24;101549.88;;;-8.04;86.72
75136;BME280;63707;52.212;9.540;2022-12-18T07:49:49;101554.63;;;-8.14;87.37
75136;BME280;63707;52.212;9.540;2022-12-18T07:52:15;101551.66;;;-8.05;87.04
75136;BME280;63707;52.212;9.540;2022-12-18T07:54:40;101552.50;;;-7.78;86.61
75136;BME280;63707;52.212;9.540;2022-12-18T07:57:06;101546.13;;;-7.72;85.93
75136;BME280;63707;52.212;9.540;2022-12-18T07:59:33;101543.47;;;-6.99;83.63
75136;BME280;63707;52.212;9.540;2022-12-18T08:01:58;101544.81;;;-5.81;79.73
75136;BME280;63707;52.212;9.540;2022-12-18T08:04:24;101539.22;;;-5.14;75.23
75136;BME280;63707;52.212;9.540;2022-12-18T08:06:49;101544.50;;;-5.53;77.71
75136;BME280;63707;52.212;9.540;2022-12-18T08:09:15;101536.44;;;-3.84;73.10
75136;BME280;63707;52.212;9.540;2022-12-18T08:11:40;101519.25;;;-3.27;70.96
75136;BME280;63707;52.212;9.540;2022-12-18T08:14:06;101519.63;;;-2.38;68.62
75136;BME280;63707;52.212;9.540;2022-12-18T08:16:33;101518.97;;;-1.96;66.88
75136;BME280;63707;52.212;9.540;2022-12-18T08:18:58;101526.03;;;-3.71;70.36
75136;BME280;63707;52.212;9.540;2022-12-18T08:21:26;101520.19;;;-2.79;67.13
75136;BME280;63707;52.212;9.540;2022-12-18T08:23:55;101506.81;;;-1.42;63.39
75136;BME280;63707;52.212;9.540;2022-12-18T08:26:21;101503.16;;;-0.84;60.76
75136;BME280;63707;52.212;9.540;2022-12-18T08:28:46;101497.63;;;-1.23;62.62
75136;BME280;63707;52.212;9.540;2022-12-18T08:31:12;101496.09;;;-0.04;58.83
75136;BME280;63707;52.212;9.540;2022-12-18T08:33:39;101497.44;;;-2.55;63.27
75136;BME280;63707;52.212;9.540;2022-12-18T08:36:06;101505.06;;;-3.44;67.44
75136;BME280;63707;52.212;9.540;2022-12-18T08:38:32;101503.44;;;-4.33;70.64
75136;BME280;63707;52.212;9.540;2022-12-18T08:40:58;101498.28;;;-5.10;75.09
75136;BME280;63707;52.212;9.540;2022-12-18T08:43:24;101507.28;;;-5.33;76.11
75136;BME280;63707;52.212;9.540;2022-12-18T08:46:08;101511.28;;;-5.43;76.31
75136;BME280;63707;52.212;9.540;2022-12-18T08:48:34;101515.28;;;-6.56;79.68
75136;BME280;63707;52.212;9.540;2022-12-18T08:51:01;101511.22;;;-6.43;79.63
75136;BME280;63707;52.212;9.540;2022-12-18T08:53:27;101516.91;;;-6.52;81.00
75136;BME280;63707;52.212;9.540;2022-12-18T08:55:52;101519.69;;;-7.01;80.94
75136;BME280;63707;52.212;9.540;2022-12-18T08:58:18;101517.19;;;-6.82;81.58
75136;BME280;63707;52.212;9.540;2022-12-18T09:00:43;101506.28;;;-6.52;81.27
75136;BME280;63707;52.212;9.540;2022-12-18T09:03:11;101510.69;;;-6.96;82.99
75136;BME280;63707;52.212;9.540;2022-12-18T09:05:37;101512.38;;;-6.94;83.78
75136;BME280;63707;52.212;9.540;2022-12-18T09:08:03;101504.06;;;-6.85;83.00
75136;BME280;63707;52.212;9.540;2022-12-18T09:10:29;101506.59;;;-6.38;82.25
75136;BME280;63707;52.212;9.540;2022-12-18T09:12:54;101515.91;;;-6.50;81.13
75136;BME280;63707;52.212;9.540;2022-12-18T09:15:21;101506.88;;;-6.24;81.32
75136;BME280;63707;52.212;9.540;2022-12-18T09:17:46;101510.25;;;-6.20;81.02
75136;BME280;63707;52.212;9.540;2022-12-18T09:20:13;101510.75;;;-5.90;80.76
75136;BME280;63707;52.212;9.540;2022-12-18T09:22:38;101504.09;;;-5.80;79.46
75136;BME280;63707;52.212;9.540;2022-12-18T09:25:06;101499.50;;;-5.77;79.84
75136;BME280;63707;52.212;9.540;2022-12-18T09:27:33;101489.38;;;-5.67;79.93
75136;BME280;63707;52.212;9.540;2022-12-18T09:29:58;101486.72;;;-5.67;79.33
75136;BME280;63707;52.212;9.540;2022-12-18T09:32:24;101481.22;;;-5.44;79.12
75136;BME280;63707;52.212;9.540;2022-12-18T09:34:49;101490.75;;;-5.19;77.88
75136;BME280;63707;52.212;9.540;2022-12-18T09:37:15;101483.28;;;-5.50;78.66
75136;BME280;63707;52.212;9.540;2022-12-18T09:39:40;101490.81;;;-5.60;79.52
75136;BME280;63707;52.212;9.540;2022-12-18T09:42:12;101485.09;;;-5.32;79.19
75136;BME280;63707;52.212;9.540;2022-12-18T09:44:44;101498.50;;;-5.54;80.01
75136;BME280;63707;52.212;9.540;2022-12-18T09:47:15;101500.06;;;-5.11;78.45
75136;BME280;63707;52.212;9.540;2022-12-18T09:49:44;101505.94;;;-5.23;79.28
75136;BME280;63707;52.212;9.540;2022-12-18T09:52:15;101505.38;;;-4.92;78.01
75136;BME280;63707;52.212;9.540;2022-12-18T09:54:45;101506.22;;;-4.54;75.84
75136;BME280;63707;52.212;9.540;2022-12-18T09:57:17;101508.94;;;-4.19;74.88
75136;BME280;63707;52.212;9.540;2022-12-18T09:59:46;101497.22;;;-4.15;74.71
75136;BME280;63707;52.212;9.540;2022-12-18T10:02:16;101488.22;;;-3.28;71.02
75136;BME280;63707;52.212;9.540;2022-12-18T10:04:42;101497.75;;;-3.57;71.61
75136;BME280;63707;52.212;9.540;2022-12-18T10:07:14;101501.66;;;-3.64;72.78
75136;BME280;63707;52.212;9.540;2022-12-18T10:09:49;101490.44;;;-3.53;73.85
75136;BME280;63707;52.212;9.540;2022-12-18T10:12:23;101498.72;;;-3.42;72.67
75136;BME280;63707;52.212;9.540;2022-12-18T10:14:53;101496.38;;;-3.15;72.39
75136;BME280;63707;52.212;9.540;2022-12-18T10:17:26;101498.69;;;-3.92;73.89
75136;BME280;63707;52.212;9.540;2022-12-18T10:19:56;101488.72;;;-3.54;72.89
75136;BME280;63707;52.212;9.540;2022-12-18T10:22:39;101487.44;;;-3.47;73.84
75136;BME280;63707;52.212;9.540;2022-12-18T10:25:17;101497.50;;;-3.52;73.00
75136;BME280;63707;52.212;9.540;2022-12-18T10:27:46;101490.94;;;-3.80;74.07
75136;BME280;63707;52.212;9.540;2022-12-18T10:30:21;101481.66;;;-3.55;73.72
75136;BME280;63707;52.212;9.540;2022-12-18T10:32:47;101484.03;;;-3.33;72.55
75136;BME280;63707;52.212;9.540;2022-12-18T10:35:18;101475.16;;;-3.50;72.77
75136;BME280;63707;52.212;9.540;2022-12-18T10:38:01;101483.44;;;-3.71;74.53
75136;BME280;63707;52.212;9.540;2022-12-18T10:40:26;101484.25;;;-3.54;74.10
75136;BME280;63707;52.212;9.540;2022-12-18T10:43:04;101484.88;;;-3.49;74.39
75136;BME280;63707;52.212;9.540;2022-12-18T10:45:31;101479.50;;;-3.82;76.25
75136;BME280;63707;52.212;9.540;2022-12-18T10:47:56;101474.66;;;-3.91;76.94
75136;BME280;63707;52.212;9.540;2022-12-18T10:50:28;101480.66;;;-3.53;75.80
75136;BME280;63707;52.212;9.540;2022-12-18T10:52:57;101479.22;;;-4.10;76.99
75136;BME280;63707;52.212;9.540;2022-12-18T10:55:24;101461.63;;;-3.62;76.32
75136;BME280;63707;52.212;9.540;2022-12-18T10:57:52;101456.94;;;-3.41;74.79
75136;BME280;63707;52.212;9.540;2022-12-18T11:00:25;101448.31;;;-3.13;74.86
75136;BME280;63707;52.212;9.540;2022-12-18T11:02:51;101456.06;;;-2.93;73.73
75136;BME280;63707;52.212;9.540;2022-12-18T11:05:26;101457.97;;;-2.79;72.67
75136;BME280;63707;52.212;9.540;2022-12-18T11:07:52;101451.50;;;-3.07;73.86
75136;BME280;63707;52.212;9.540;2022-12-18T11:10:25;101454.84;;;-2.88;73.16
75136;BME280;63707;52.212;9.540;2022-12-18T11:12:51;101452.81;;;-2.82;73.14
75136;BME280;63707;52.212;9.540;2022-12-18T11:15:20;101440.06;;;-2.62;73.17
75136;BME280;63707;52.212;9.540;2022-12-18T11:17:49;101438.53;;;-2.81;72.67
75136;BME280;63707;52.212;9.540;2022-12-18T11:20:30;101443.41;;;-2.58;72.42
75136;BME280;63707;52.212;9.540;2022-12-18T11:22:58;101436.53;;;-2.62;72.32
75136;BME280;63707;52.212;9.540;2022-12-18T11:25:25;101435.75;;;-2.64;73.25
75136;BME280;63707;52.212;9.540;2022-12-18T11:27:52;101432.06;;;-2.93;73.50
75136;BME280;63707;52.212;9.540;2022-12-18T11:30:24;101439.03;;;-3.06;74.16
75136;BME280;63707;52.212;9.540;2022-12-18T11:32:54;101437.91;;;-3.18;74.24
75136;BME280;63707;52.212;9.540;2022-12-18T11:35:35;101430.94;;;-3.21;74.39
75136;BME280;63707;52.212;9.540;2022-12-18T11:38:06;101417.28;;;-3.30;74.87
75136;BME280;63707;52.212;9.540;2022-12-18T11:40:38;101412.16;;;-3.35;75.45
75136;BME280;63707;52.212;9.540;2022-12-18T11:43:09;101408.66;;;-3.35;76.41
75136;BME280;63707;52.212;9.540;2022-12-18T11:45:41;101414.31;;;-3.41;76.57
75136;BME280;63707;52.212;9.540;2022-12-18T11:48:16;101401.75;;;-3.39;76.33
75136;BME280;63707;52.212;9.540;2022-12-18T11:50:47;101403.66;;;-3.41;76.81
75136;BME280;63707;52.212;9.540;2022-12-18T11:53:15;101387.41;;;-3.37;76.58
75136;BME280;63707;52.212;9.540;2022-12-18T11:55:49;101384.97;;;-3.24;76.11
75136;BME280;63707;52.212;9.540;2022-12-18T11:58:26;101387.50;;;-3.38;76.95
75136;BME280;63707;52.212;9.540;2022-12-18T12:00:58;101384.00;;;-3.23;76.09
75136;BME280;63707;52.212;9.540;2022-12-18T12:03:42;101382.44;;;-3.11;75.69
75136;BME280;63707;52.212;9.540;2022-12-18T12:06:14;101377.81;;;-3.08;75.22
75136;BME280;63707;52.212;9.540;2022-12-18T12:08:54;101369.09;;;-2.96;74.40
75136;BME280;63707;52.212;9.540;2022-12-18T12:11:33;101372.28;;;-3.05;74.63
75136;BME280;63707;52.212;9.540;2022-12-18T12:14:15;101371.41;;;-2.90;74.42
75136;BME280;63707;52.212;9.540;2022-12-18T12:16:51;101374.09;;;-3.05;74.49
75136;BME280;63707;52.212;9.540;2022-12-18T12:19:29;101366.84;;;-2.88;74.08
75136;BME280;63707;52.212;9.540;2022-12-18T12:22:05;101362.56;;;-2.90;74.61
75136;BME280;63707;52.212;9.540;2022-12-18T12:24:39;101357.31;;;-2.76;73.63
75136;BME280;63707;52.212;9.540;2022-12-18T12:27:16;101347.47;;;-2.45;73.09
75136;BME280;63707;52.212;9.540;2022-12-18T12:29:53;101344.97;;;-2.63;72.99
75136;BME280;63707;52.212;9.540;2022-12-18T12:32:33;101348.78;;;-2.53;73.57
75136;BME280;63707;52.212;9.540;2022-12-18T12:35:12;101334.28;;;-2.63;73.19
75136;BME280;63707;52.212;9.540;2022-12-18T12:37:47;101329.34;;;-2.55;73.42
75136;BME280;63707;52.212;9.540;2022-12-18T12:40:20;101313.44;;;-2.56;73.71
75136;BME280;63707;52.212;9.540;2022-12-18T12:42:52;101308.75;;;-2.67;73.99
75136;BME280;63707;52.212;9.540;2022-12-18T12:45:41;101312.84;;;-2.61;73.28
75136;BME280;63707;52.212;9.540;2022-12-18T12:48:17;101327.19;;;-2.78;74.53
75136;BME280;63707;52.212;9.540;2022-12-18T12:50:46;101319.69;;;-2.71;73.72
75136;BME280;63707;52.212;9.540;2022-12-18T12:53:36;101313.00;;;-2.78;74.54
75136;BME280;63707;52.212;9.540;2022-12-18T12:56:03;101323.66;;;-2.78;74.24
75136;BME280;63707;52.212;9.540;2022-12-18T12:58:34;101315.75;;;-2.80;74.42